To NAV CANADA Home Page Login to a new session Search on AWWS site Feedback and Comments Disclaimer Vers la page française équivalente Tips FAQ What's new on the site To the Forecasts and Observations / NOTAM section To "File a Flight Plan" website Publications and other links Update of the User's profile FIC Telephone Numbers My Weather Data Folder Route Weather Data Regional Weather Data Local Weather Data To the Forecasts and Observations / NOTAM section
Request Generated 09/30/2016 at 11:42:39 UTC . Weather information available at that time is displayed.

METAR/TAF

SCHEFFERVILLE/QC    (show WxCam)

METAR CYKL 301100Z AUTO 30004KT 9SM SCT011 OVC160 04/04 A3038 RMK
SLP311=
SPECI CYKL 301059Z AUTO 30004KT 9SM SCT011 OVC160 04/04 A3037 RMK
SLP310=
SPECI CYKL 301043Z AUTO 30005KT 9SM BKN011 BKN025 OVC160 04/04 A3037
RMK SLP310=
METAR CYKL 301000Z AUTO 29004KT 270V350 9SM FEW017 SCT028 BKN160
OVC180 05/04 A3037 RMK SLP310=
METAR CYKL 300900Z AUTO 31003KT 9SM FEW016 SCT150 OVC190 05/04 A3037
RMK SLP308=

TAF AMD CYKL 300819Z 3008/3020 30005KT P6SM SCT006 BKN040 TEMPO
3008/3011 2SM BR BKN006 PROB30 3008/3011 1/2SM FG
FM301100 30008KT 6SM BR FEW006 TEMPO 3011/3013 2SM BR BKN006
BECMG 3015/3017 28012KT
RMK FCST BASED ON AUTO OBS. NXT FCST BY 301400Z=
Your time UTC time
Weather data provided by Environment Canada and NAV CANADA